sensor_id;sensor_type;location;lat;lon;timestamp;P1;durP1;ratioP1;P2;durP2;ratioP2
37645;SDS011;23489;49.600;6.138;2024-01-15T00:00:12;34.93;;;12.60;;
37645;SDS011;23489;49.600;6.138;2024-01-15T00:02:38;42.13;;;12.30;;
37645;SDS011;23489;49.600;6.138;2024-01-15T00:05:04;38.10;;;11.33;;
37645;SDS011;23489;49.600;6.138;2024-01-15T00:07:29;34.20;;;11.87;;
37645;SDS011;23489;49.600;6.138;2024-01-15T00:09:55;42.87;;;13.07;;
37645;SDS011;23489;49.600;6.138;2024-01-15T00:12:21;39.37;;;12.50;;
37645;SDS011;23489;49.600;6.138;2024-01-15T00:14:46;28.03;;;10.30;;
37645;SDS011;23489;49.600;6.138;2024-01-15T00:17:12;37.97;;;11.17;;
37645;SDS011;23489;49.600;6.138;2024-01-15T00:19:38;36.90;;;11.90;;
37645;SDS011;23489;49.600;6.138;2024-01-15T00:22:04;35.93;;;12.17;;
37645;SDS011;23489;49.600;6.138;2024-01-15T00:24:29;35.13;;;11.93;;
37645;SDS011;23489;49.600;6.138;2024-01-15T00:26:55;37.20;;;12.43;;
37645;SDS011;23489;49.600;6.138;2024-01-15T00:29:21;33.13;;;12.20;;
37645;SDS011;23489;49.600;6.138;2024-01-15T00:31:46;34.87;;;12.37;;
37645;SDS011;23489;49.600;6.138;2024-01-15T00:34:12;38.33;;;11.73;;
37645;SDS011;23489;49.600;6.138;2024-01-15T00:36:38;36.97;;;12.70;;
37645;SDS011;23489;49.600;6.138;2024-01-15T00:39:03;40.03;;;13.13;;
37645;SDS011;23489;49.600;6.138;2024-01-15T00:41:30;33.80;;;12.17;;
37645;SDS011;23489;49.600;6.138;2024-01-15T00:43:56;39.10;;;12.00;;
37645;SDS011;23489;49.600;6.138;2024-01-15T00:46:21;38.33;;;12.67;;
37645;SDS011;23489;49.600;6.138;2024-01-15T00:48:47;43.70;;;13.43;;
37645;SDS011;23489;49.600;6.138;2024-01-15T00:51:13;34.93;;;11.90;;
37645;SDS011;23489;49.600;6.138;2024-01-15T00:53:38;38.50;;;13.63;;
37645;SDS011;23489;49.600;6.138;2024-01-15T00:56:05;48.47;;;12.80;;
37645;SDS011;23489;49.600;6.138;2024-01-15T00:58:31;42.20;;;12.07;;
37645;SDS011;23489;49.600;6.138;2024-01-15T01:00:56;34.13;;;12.20;;
37645;SDS011;23489;49.600;6.138;2024-01-15T01:03:22;34.70;;;13.07;;
37645;SDS011;23489;49.600;6.138;2024-01-15T01:05:48;38.90;;;12.57;;
37645;SDS011;23489;49.600;6.138;2024-01-15T01:08:15;40.30;;;14.53;;
37645;SDS011;23489;49.600;6.138;2024-01-15T01:10:40;40.30;;;11.87;;
37645;SDS011;23489;49.600;6.138;2024-01-15T01:13:08;34.30;;;12.17;;
37645;SDS011;23489;49.600;6.138;2024-01-15T01:15:34;36.97;;;12.70;;
37645;SDS011;23489;49.600;6.138;2024-01-15T01:17:59;35.97;;;11.83;;
37645;SDS011;23489;49.600;6.138;2024-01-15T01:20:25;41.03;;;13.00;;
37645;SDS011;23489;49.600;6.138;2024-01-15T01:22:50;42.37;;;14.13;;
37645;SDS011;23489;49.600;6.138;2024-01-15T01:25:16;36.50;;;12.67;;
37645;SDS011;23489;49.600;6.138;2024-01-15T01:27:42;39.87;;;13.20;;
37645;SDS011;23489;49.600;6.138;2024-01-15T01:30:08;35.90;;;12.80;;
37645;SDS011;23489;49.600;6.138;2024-01-15T01:32:34;32.10;;;12.20;;
37645;SDS011;23489;49.600;6.138;2024-01-15T01:35:00;35.77;;;12.83;;
37645;SDS011;23489;49.600;6.138;2024-01-15T01:37:25;38.33;;;12.97;;
37645;SDS011;23489;49.600;6.138;2024-01-15T01:39:52;38.17;;;12.63;;
37645;SDS011;23489;49.600;6.138;2024-01-15T01:42:18;37.60;;;12.17;;
37645;SDS011;23489;49.600;6.138;2024-01-15T01:44:43;49.07;;;14.23;;
37645;SDS011;23489;49.600;6.138;2024-01-15T01:47:09;38.80;;;12.63;;
37645;SDS011;23489;49.600;6.138;2024-01-15T01:49:35;39.90;;;13.23;;
37645;SDS011;23489;49.600;6.138;2024-01-15T01:52:02;39.87;;;13.33;;
37645;SDS011;23489;49.600;6.138;2024-01-15T01:54:31;39.90;;;13.53;;
37645;SDS011;23489;49.600;6.138;2024-01-15T01:56:58;37.90;;;12.07;;
37645;SDS011;23489;49.600;6.138;2024-01-15T01:59:25;42.53;;;12.53;;
37645;SDS011;23489;49.600;6.138;2024-01-15T02:01:52;34.33;;;12.37;;
37645;SDS011;23489;49.600;6.138;2024-01-15T02:04:19;38.90;;;13.13;;
37645;SDS011;23489;49.600;6.138;2024-01-15T02:06:47;39.67;;;12.50;;
37645;SDS011;23489;49.600;6.138;2024-01-15T02:09:13;44.47;;;14.43;;
37645;SDS011;23489;49.600;6.138;2024-01-15T02:11:40;45.93;;;14.27;;
37645;SDS011;23489;49.600;6.138;2024-01-15T02:14:07;40.83;;;13.20;;
37645;SDS011;23489;49.600;6.138;2024-01-15T02:16:34;41.73;;;12.60;;
37645;SDS011;23489;49.600;6.138;2024-01-15T02:18:59;31.47;;;12.57;;
37645;SDS011;23489;49.600;6.138;2024-01-15T02:21:25;39.63;;;12.77;;
37645;SDS011;23489;49.600;6.138;2024-01-15T02:23:53;39.53;;;12.37;;
37645;SDS011;23489;49.600;6.138;2024-01-15T02:26:19;40.60;;;12.97;;
37645;SDS011;23489;49.600;6.138;2024-01-15T02:28:46;38.00;;;13.43;;
37645;SDS011;23489;49.600;6.138;2024-01-15T02:31:12;40.30;;;13.80;;
37645;SDS011;23489;49.600;6.138;2024-01-15T02:33:38;39.30;;;12.47;;
37645;SDS011;23489;49.600;6.138;2024-01-15T02:36:03;39.00;;;15.10;;
37645;SDS011;23489;49.600;6.138;2024-01-15T02:38:29;42.73;;;14.03;;
37645;SDS011;23489;49.600;6.138;2024-01-15T02:40:55;41.30;;;13.87;;
37645;SDS011;23489;49.600;6.138;2024-01-15T02:43:20;39.90;;;14.20;;
37645;SDS011;23489;49.600;6.138;2024-01-15T02:45:46;43.40;;;13.20;;
37645;SDS011;23489;49.600;6.138;2024-01-15T02:48:12;39.73;;;13.30;;
37645;SDS011;23489;49.600;6.138;2024-01-15T02:50:37;44.83;;;14.35;;
37645;SDS011;23489;49.600;6.138;2024-01-15T02:53:03;43.80;;;16.53;;
37645;SDS011;23489;49.600;6.138;2024-01-15T02:55:29;41.70;;;13.83;;
37645;SDS011;23489;49.600;6.138;2024-01-15T02:57:55;46.27;;;14.33;;
37645;SDS011;23489;49.600;6.138;2024-01-15T03:00:20;46.37;;;13.83;;
37645;SDS011;23489;49.600;6.138;2024-01-15T03:02:46;50.67;;;16.17;;
37645;SDS011;23489;49.600;6.138;2024-01-15T03:05:13;47.47;;;14.93;;
37645;SDS011;23489;49.600;6.138;2024-01-15T03:07:38;40.80;;;15.00;;
37645;SDS011;23489;49.600;6.138;2024-01-15T03:10:04;44.20;;;15.13;;
37645;SDS011;23489;49.600;6.138;2024-01-15T03:12:31;37.73;;;13.10;;
37645;SDS011;23489;49.600;6.138;2024-01-15T03:14:56;41.47;;;13.57;;
37645;SDS011;23489;49.600;6.138;2024-01-15T03:17:22;38.63;;;12.87;;
37645;SDS011;23489;49.600;6.138;2024-01-15T03:19:48;44.53;;;15.23;;
37645;SDS011;23489;49.600;6.138;2024-01-15T03:22:14;38.73;;;14.63;;
37645;SDS011;23489;49.600;6.138;2024-01-15T03:24:40;36.13;;;13.37;;
37645;SDS011;23489;49.600;6.138;2024-01-15T03:27:06;33.83;;;11.97;;
37645;SDS011;23489;49.600;6.138;2024-01-15T03:29:32;39.30;;;13.93;;
37645;SDS011;23489;49.600;6.138;2024-01-15T03:31:57;39.50;;;14.30;;
37645;SDS011;23489;49.600;6.138;2024-01-15T03:34:23;39.80;;;13.67;;
37645;SDS011;23489;49.600;6.138;2024-01-15T03:36:48;40.03;;;13.10;;
37645;SDS011;23489;49.600;6.138;2024-01-15T03:39:14;38.17;;;13.10;;
37645;SDS011;23489;49.600;6.138;2024-01-15T03:41:40;45.50;;;13.97;;
37645;SDS011;23489;49.600;6.138;2024-01-15T03:44:05;35.27;;;13.10;;
37645;SDS011;23489;49.600;6.138;2024-01-15T03:46:31;40.83;;;13.47;;
37645;SDS011;23489;49.600;6.138;2024-01-15T03:48:57;37.57;;;11.83;;
37645;SDS011;23489;49.600;6.138;2024-01-15T03:51:22;37.23;;;13.83;;
37645;SDS011;23489;49.600;6.138;2024-01-15T03:53:48;33.73;;;12.87;;
37645;SDS011;23489;49.600;6.138;2024-01-15T03:56:14;34.37;;;13.77;;
37645;SDS011;23489;49.600;6.138;2024-01-15T03:58:39;38.00;;;13.03;;
37645;SDS011;23489;49.600;6.138;2024-01-15T04:01:09;41.47;;;14.17;;
37645;SDS011;23489;49.600;6.138;2024-01-15T04:03:35;32.57;;;12.80;;
37645;SDS011;23489;49.600;6.138;2024-01-15T04:06:01;37.23;;;12.47;;
37645;SDS011;23489;49.600;6.138;2024-01-15T04:08:26;36.50;;;14.23;;
37645;SDS011;23489;49.600;6.138;2024-01-15T04:10:52;41.20;;;13.73;;
37645;SDS011;23489;49.600;6.138;2024-01-15T04:13:18;28.93;;;11.50;;
37645;SDS011;23489;49.600;6.138;2024-01-15T04:15:43;41.97;;;14.23;;
37645;SDS011;23489;49.600;6.138;2024-01-15T04:18:09;33.73;;;12.80;;
37645;SDS011;23489;49.600;6.138;2024-01-15T04:20:34;38.88;;;13.70;;
37645;SDS011;23489;49.600;6.138;2024-01-15T04:23:00;36.60;;;13.87;;
37645;SDS011;23489;49.600;6.138;2024-01-15T04:25:26;37.93;;;13.10;;
37645;SDS011;23489;49.600;6.138;2024-01-15T04:27:51;27.70;;;12.03;;
37645;SDS011;23489;49.600;6.138;2024-01-15T04:30:17;34.27;;;11.93;;
37645;SDS011;23489;49.600;6.138;2024-01-15T04:32:42;32.53;;;12.80;;
37645;SDS011;23489;49.600;6.138;2024-01-15T04:35:08;37.40;;;13.67;;
37645;SDS011;23489;49.600;6.138;2024-01-15T04:37:34;31.23;;;12.57;;
37645;SDS011;23489;49.600;6.138;2024-01-15T04:39:59;35.20;;;12.73;;
37645;SDS011;23489;49.600;6.138;2024-01-15T04:42:25;34.90;;;13.43;;
37645;SDS011;23489;49.600;6.138;2024-01-15T04:44:51;36.97;;;13.03;;
37645;SDS011;23489;49.600;6.138;2024-01-15T04:47:17;38.30;;;13.17;;
37645;SDS011;23489;49.600;6.138;2024-01-15T04:49:42;31.80;;;12.60;;
37645;SDS011;23489;49.600;6.138;2024-01-15T04:52:08;36.07;;;13.20;;
37645;SDS011;23489;49.600;6.138;2024-01-15T04:54:35;27.60;;;11.20;;
37645;SDS011;23489;49.600;6.138;2024-01-15T04:57:01;31.00;;;12.40;;
37645;SDS011;23489;49.600;6.138;2024-01-15T04:59:27;31.57;;;12.47;;
37645;SDS011;23489;49.600;6.138;2024-01-15T05:01:53;31.10;;;13.03;;
37645;SDS011;23489;49.600;6.138;2024-01-15T05:04:19;33.53;;;12.77;;
37645;SDS011;23489;49.600;6.138;2024-01-15T05:06:45;29.20;;;12.67;;
37645;SDS011;23489;49.600;6.138;2024-01-15T05:09:11;35.30;;;13.50;;
37645;SDS011;23489;49.600;6.138;2024-01-15T05:11:38;32.90;;;10.83;;
37645;SDS011;23489;49.600;6.138;2024-01-15T05:14:04;29.27;;;12.57;;
37645;SDS011;23489;49.600;6.138;2024-01-15T05:16:30;27.87;;;12.43;;
37645;SDS011;23489;49.600;6.138;2024-01-15T05:18:55;28.73;;;12.10;;
37645;SDS011;23489;49.600;6.138;2024-01-15T05:21:21;28.43;;;11.57;;
37645;SDS011;23489;49.600;6.138;2024-01-15T05:23:47;34.20;;;12.37;;
37645;SDS011;23489;49.600;6.138;2024-01-15T05:26:12;33.77;;;11.87;;
37645;SDS011;23489;49.600;6.138;2024-01-15T05:28:38;36.73;;;13.23;;
37645;SDS011;23489;49.600;6.138;2024-01-15T05:31:05;28.03;;;11.07;;
37645;SDS011;23489;49.600;6.138;2024-01-15T05:33:31;31.30;;;11.57;;
37645;SDS011;23489;49.600;6.138;2024-01-15T05:35:57;32.67;;;12.83;;
37645;SDS011;23489;49.600;6.138;2024-01-15T05:38:24;24.87;;;11.57;;
37645;SDS011;23489;49.600;6.138;2024-01-15T05:40:49;30.70;;;11.13;;
37645;SDS011;23489;49.600;6.138;2024-01-15T05:43:15;28.13;;;11.60;;
37645;SDS011;23489;49.600;6.138;2024-01-15T05:45:42;25.00;;;12.20;;
37645;SDS011;23489;49.600;6.138;2024-01-15T05:48:08;27.30;;;10.93;;
37645;SDS011;23489;49.600;6.138;2024-01-15T05:50:34;23.70;;;9.87;;
37645;SDS011;23489;49.600;6.138;2024-01-15T05:53:00;28.42;;;10.90;;
37645;SDS011;23489;49.600;6.138;2024-01-15T05:55:25;34.77;;;11.30;;
37645;SDS011;23489;49.600;6.138;2024-01-15T05:57:51;29.75;;;13.10;;
37645;SDS011;23489;49.600;6.138;2024-01-15T06:00:17;35.13;;;13.03;;
37645;SDS011;23489;49.600;6.138;2024-01-15T06:02:42;34.87;;;12.97;;
37645;SDS011;23489;49.600;6.138;2024-01-15T06:05:08;43.47;;;13.80;;
37645;SDS011;23489;49.600;6.138;2024-01-15T06:07:34;34.70;;;13.53;;
37645;SDS011;23489;49.600;6.138;2024-01-15T06:10:01;37.47;;;13.80;;
37645;SDS011;23489;49.600;6.138;2024-01-15T06:12:27;36.00;;;13.33;;
37645;SDS011;23489;49.600;6.138;2024-01-15T06:14:53;39.53;;;13.67;;
37645;SDS011;23489;49.600;6.138;2024-01-15T06:17:18;44.07;;;15.40;;
37645;SDS011;23489;49.600;6.138;2024-01-15T06:19:44;41.63;;;15.47;;
37645;SDS011;23489;49.600;6.138;2024-01-15T06:22:09;46.03;;;15.20;;
37645;SDS011;23489;49.600;6.138;2024-01-15T06:24:35;45.03;;;15.70;;
37645;SDS011;23489;49.600;6.138;2024-01-15T06:27:01;40.17;;;14.43;;
37645;SDS011;23489;49.600;6.138;2024-01-15T06:29:26;40.70;;;14.80;;
37645;SDS011;23489;49.600;6.138;2024-01-15T06:31:53;43.90;;;15.73;;
37645;SDS011;23489;49.600;6.138;2024-01-15T06:34:19;41.93;;;15.93;;
37645;SDS011;23489;49.600;6.138;2024-01-15T06:36:44;43.67;;;15.37;;
37645;SDS011;23489;49.600;6.138;2024-01-15T06:39:10;38.47;;;14.77;;
37645;SDS011;23489;49.600;6.138;2024-01-15T06:41:36;44.10;;;15.63;;
37645;SDS011;23489;49.600;6.138;2024-01-15T06:44:08;45.17;;;16.83;;
37645;SDS011;23489;49.600;6.138;2024-01-15T06:46:37;36.20;;;13.67;;
37645;SDS011;23489;49.600;6.138;2024-01-15T06:49:07;40.87;;;15.07;;
37645;SDS011;23489;49.600;6.138;2024-01-15T06:51:33;44.73;;;15.70;;
37645;SDS011;23489;49.600;6.138;2024-01-15T06:53:58;43.63;;;15.67;;
37645;SDS011;23489;49.600;6.138;2024-01-15T06:56:24;36.13;;;15.43;;
37645;SDS011;23489;49.600;6.138;2024-01-15T06:58:49;45.70;;;17.52;;
37645;SDS011;23489;49.600;6.138;2024-01-15T07:01:15;43.97;;;16.87;;
37645;SDS011;23489;49.600;6.138;2024-01-15T07:03:41;44.53;;;16.30;;
37645;SDS011;23489;49.600;6.138;2024-01-15T07:06:06;53.67;;;16.83;;
37645;SDS011;23489;49.600;6.138;2024-01-15T07:08:32;50.43;;;16.37;;
37645;SDS011;23489;49.600;6.138;2024-01-15T07:10:57;40.50;;;15.57;;
37645;SDS011;23489;49.600;6.138;2024-01-15T07:13:23;40.90;;;15.53;;
37645;SDS011;23489;49.600;6.138;2024-01-15T07:15:48;39.90;;;15.60;;
37645;SDS011;23489;49.600;6.138;2024-01-15T07:18:15;44.83;;;15.90;;
37645;SDS011;23489;49.600;6.138;2024-01-15T07:20:41;36.20;;;14.43;;
37645;SDS011;23489;49.600;6.138;2024-01-15T07:23:07;35.37;;;13.93;;
37645;SDS011;23489;49.600;6.138;2024-01-15T07:25:32;35.17;;;13.77;;
37645;SDS011;23489;49.600;6.138;2024-01-15T07:27:58;31.17;;;13.53;;
37645;SDS011;23489;49.600;6.138;2024-01-15T07:30:24;33.53;;;14.30;;
37645;SDS011;23489;49.600;6.138;2024-01-15T07:32:49;35.83;;;12.60;;
37645;SDS011;23489;49.600;6.138;2024-01-15T07:35:16;27.15;;;12.23;;
37645;SDS011;23489;49.600;6.138;2024-01-15T07:37:42;30.93;;;12.57;;
37645;SDS011;23489;49.600;6.138;2024-01-15T07:40:08;28.77;;;12.40;;
37645;SDS011;23489;49.600;6.138;2024-01-15T07:42:37;27.10;;;11.37;;
37645;SDS011;23489;49.600;6.138;2024-01-15T07:45:03;28.50;;;11.00;;
37645;SDS011;23489;49.600;6.138;2024-01-15T07:47:29;24.42;;;10.52;;
37645;SDS011;23489;49.600;6.138;2024-01-15T07:49:55;26.47;;;10.67;;
37645;SDS011;23489;49.600;6.138;2024-01-15T07:52:21;23.33;;;9.57;;
37645;SDS011;23489;49.600;6.138;2024-01-15T07:54:47;21.30;;;9.87;;
37645;SDS011;23489;49.600;6.138;2024-01-15T07:57:12;20.87;;;9.67;;
37645;SDS011;23489;49.600;6.138;2024-01-15T07:59:38;20.27;;;9.17;;
37645;SDS011;23489;49.600;6.138;2024-01-15T08:02:05;21.17;;;9.73;;
37645;SDS011;23489;49.600;6.138;2024-01-15T08:04:31;22.33;;;9.43;;
37645;SDS011;23489;49.600;6.138;2024-01-15T08:06:56;21.93;;;9.33;;
37645;SDS011;23489;49.600;6.138;2024-01-15T08:09:22;18.43;;;8.53;;
37645;SDS011;23489;49.600;6.138;2024-01-15T08:11:48;17.23;;;8.63;;
37645;SDS011;23489;49.600;6.138;2024-01-15T08:14:17;17.08;;;8.27;;
37645;SDS011;23489;49.600;6.138;2024-01-15T08:16:43;19.98;;;9.05;;
37645;SDS011;23489;49.600;6.138;2024-01-15T08:19:08;22.43;;;10.13;;
37645;SDS011;23489;49.600;6.138;2024-01-15T08:21:34;19.70;;;8.33;;
37645;SDS011;23489;49.600;6.138;2024-01-15T08:24:00;21.42;;;9.27;;
37645;SDS011;23489;49.600;6.138;2024-01-15T08:26:29;21.00;;;8.87;;
37645;SDS011;23489;49.600;6.138;2024-01-15T08:28:55;22.43;;;10.20;;
37645;SDS011;23489;49.600;6.138;2024-01-15T08:31:21;19.38;;;9.18;;
37645;SDS011;23489;49.600;6.138;2024-01-15T08:33:47;23.53;;;10.20;;
37645;SDS011;23489;49.600;6.138;2024-01-15T08:36:13;18.40;;;9.00;;
37645;SDS011;23489;49.600;6.138;2024-01-15T08:38:38;23.03;;;10.53;;
37645;SDS011;23489;49.600;6.138;2024-01-15T08:41:04;23.50;;;10.07;;
37645;SDS011;23489;49.600;6.138;2024-01-15T08:43:30;25.30;;;10.60;;
37645;SDS011;23489;49.600;6.138;2024-01-15T08:45:56;21.60;;;10.47;;
37645;SDS011;23489;49.600;6.138;2024-01-15T08:48:22;21.43;;;9.83;;
37645;SDS011;23489;49.600;6.138;2024-01-15T08:50:48;20.48;;;9.48;;
37645;SDS011;23489;49.600;6.138;2024-01-15T08:53:14;24.53;;;10.97;;
37645;SDS011;23489;49.600;6.138;2024-01-15T08:55:40;25.97;;;10.77;;
37645;SDS011;23489;49.600;6.138;2024-01-15T08:58:07;22.23;;;9.80;;
37645;SDS011;23489;49.600;6.138;2024-01-15T09:00:33;21.35;;;10.00;;
37645;SDS011;23489;49.600;6.138;2024-01-15T09:02:59;25.02;;;10.70;;
37645;SDS011;23489;49.600;6.138;2024-01-15T09:05:25;25.20;;;10.15;;
37645;SDS011;23489;49.600;6.138;2024-01-15T09:07:51;27.45;;;10.55;;
37645;SDS011;23489;49.600;6.138;2024-01-15T09:10:19;25.13;;;10.63;;
37645;SDS011;23489;49.600;6.138;2024-01-15T09:12:45;27.40;;;10.70;;
37645;SDS011;23489;49.600;6.138;2024-01-15T09:15:11;22.15;;;10.48;;
37645;SDS011;23489;49.600;6.138;2024-01-15T09:17:37;25.33;;;10.43;;
37645;SDS011;23489;49.600;6.138;2024-01-15T09:20:03;24.10;;;9.60;;
37645;SDS011;23489;49.600;6.138;2024-01-15T09:22:31;21.02;;;10.23;;
37645;SDS011;23489;49.600;6.138;2024-01-15T09:24:57;26.83;;;10.40;;
37645;SDS011;23489;49.600;6.138;2024-01-15T09:27:23;22.80;;;10.07;;
37645;SDS011;23489;49.600;6.138;2024-01-15T09:29:51;26.02;;;9.98;;
37645;SDS011;23489;49.600;6.138;2024-01-15T09:32:17;26.77;;;10.23;;
37645;SDS011;23489;49.600;6.138;2024-01-15T09:34:43;28.33;;;11.20;;
37645;SDS011;23489;49.600;6.138;2024-01-15T09:37:11;22.03;;;11.03;;
37645;SDS011;23489;49.600;6.138;2024-01-15T09:39:37;19.75;;;9.35;;
37645;SDS011;23489;49.600;6.138;2024-01-15T09:42:02;27.47;;;11.33;;
37645;SDS011;23489;49.600;6.138;2024-01-15T09:44:29;21.73;;;10.32;;
37645;SDS011;23489;49.600;6.138;2024-01-15T09:46:55;20.20;;;9.27;;
37645;SDS011;23489;49.600;6.138;2024-01-15T09:49:22;21.27;;;9.77;;
37645;SDS011;23489;49.600;6.138;2024-01-15T09:51:48;21.67;;;9.73;;
37645;SDS011;23489;49.600;6.138;2024-01-15T09:54:14;20.42;;;9.60;;
37645;SDS011;23489;49.600;6.138;2024-01-15T09:56:42;20.77;;;9.85;;
37645;SDS011;23489;49.600;6.138;2024-01-15T09:59:11;20.20;;;9.65;;
37645;SDS011;23489;49.600;6.138;2024-01-15T10:01:43;18.25;;;8.80;;
37645;SDS011;23489;49.600;6.138;2024-01-15T10:04:10;18.42;;;8.73;;
37645;SDS011;23489;49.600;6.138;2024-01-15T10:06:38;18.05;;;8.40;;
37645;SDS011;23489;49.600;6.138;2024-01-15T10:09:04;22.90;;;9.68;;
37645;SDS011;23489;49.600;6.138;2024-01-15T10:11:31;18.23;;;9.02;;
37645;SDS011;23489;49.600;6.138;2024-01-15T10:13:58;17.30;;;8.38;;
37645;SDS011;23489;49.600;6.138;2024-01-15T10:16:24;19.08;;;9.18;;
37645;SDS011;23489;49.600;6.138;2024-01-15T10:18:50;17.80;;;8.82;;
37645;SDS011;23489;49.600;6.138;2024-01-15T10:21:16;15.35;;;8.20;;
37645;SDS011;23489;49.600;6.138;2024-01-15T10:23:42;17.00;;;8.93;;
37645;SDS011;23489;49.600;6.138;2024-01-15T10:26:08;19.42;;;8.57;;
37645;SDS011;23489;49.600;6.138;2024-01-15T10:28:33;17.98;;;8.88;;
37645;SDS011;23489;49.600;6.138;2024-01-15T10:30:59;17.55;;;8.65;;
37645;SDS011;23489;49.600;6.138;2024-01-15T10:33:25;19.27;;;9.32;;
37645;SDS011;23489;49.600;6.138;2024-01-15T10:35:55;17.30;;;9.07;;
37645;SDS011;23489;49.600;6.138;2024-01-15T10:38:22;18.85;;;8.98;;
37645;SDS011;23489;49.600;6.138;2024-01-15T10:40:54;18.98;;;9.23;;
37645;SDS011;23489;49.600;6.138;2024-01-15T10:53:05;23.80;;;13.43;;
37645;SDS011;23489;49.600;6.138;2024-01-15T10:55:34;20.83;;;10.75;;
37645;SDS011;23489;49.600;6.138;2024-01-15T11:00:26;23.10;;;12.93;;
37645;SDS011;23489;49.600;6.138;2024-01-15T11:02:52;20.98;;;10.90;;
37645;SDS011;23489;49.600;6.138;2024-01-15T11:05:20;21.70;;;10.00;;
37645;SDS011;23489;49.600;6.138;2024-01-15T11:07:49;19.40;;;9.38;;
37645;SDS011;23489;49.600;6.138;2024-01-15T11:10:37;20.30;;;10.35;;
37645;SDS011;23489;49.600;6.138;2024-01-15T11:18:35;20.25;;;9.68;;
37645;SDS011;23489;49.600;6.138;2024-01-15T11:29:05;16.05;;;8.90;;
37645;SDS011;23489;49.600;6.138;2024-01-15T11:34:04;19.45;;;9.60;;
37645;SDS011;23489;49.600;6.138;2024-01-15T11:37:00;17.08;;;8.75;;
37645;SDS011;23489;49.600;6.138;2024-01-15T11:41:59;18.83;;;9.18;;
37645;SDS011;23489;49.600;6.138;2024-01-15T11:44:26;19.35;;;9.95;;
37645;SDS011;23489;49.600;6.138;2024-01-15T11:50:08;17.38;;;8.43;;
37645;SDS011;23489;49.600;6.138;2024-01-15T11:52:32;17.15;;;8.27;;
37645;SDS011;23489;49.600;6.138;2024-01-15T12:02:43;16.48;;;7.38;;
37645;SDS011;23489;49.600;6.138;2024-01-15T12:05:09;16.27;;;7.82;;
37645;SDS011;23489;49.600;6.138;2024-01-15T12:07:41;16.17;;;8.20;;
37645;SDS011;23489;49.600;6.138;2024-01-15T12:10:08;14.38;;;7.90;;
37645;SDS011;23489;49.600;6.138;2024-01-15T12:15:22;15.32;;;8.30;;
37645;SDS011;23489;49.600;6.138;2024-01-15T12:17:49;12.73;;;6.95;;
37645;SDS011;23489;49.600;6.138;2024-01-15T12:20:15;20.48;;;8.98;;
37645;SDS011;23489;49.600;6.138;2024-01-15T12:22:43;15.93;;;8.05;;
37645;SDS011;23489;49.600;6.138;2024-01-15T12:27:35;15.57;;;8.13;;
37645;SDS011;23489;49.600;6.138;2024-01-15T12:30:02;19.13;;;8.50;;
37645;SDS011;23489;49.600;6.138;2024-01-15T12:32:28;16.10;;;7.40;;
37645;SDS011;23489;49.600;6.138;2024-01-15T12:34:54;15.13;;;7.50;;
37645;SDS011;23489;49.600;6.138;2024-01-15T12:37:20;14.48;;;7.28;;
37645;SDS011;23489;49.600;6.138;2024-01-15T12:39:46;12.50;;;6.05;;
37645;SDS011;23489;49.600;6.138;2024-01-15T12:42:14;11.85;;;6.38;;
37645;SDS011;23489;49.600;6.138;2024-01-15T12:44:40;10.80;;;6.60;;
37645;SDS011;23489;49.600;6.138;2024-01-15T12:47:06;11.25;;;5.93;;
37645;SDS011;23489;49.600;6.138;2024-01-15T12:49:32;13.15;;;6.65;;
37645;SDS011;23489;49.600;6.138;2024-01-15T12:51:58;14.05;;;7.43;;
37645;SDS011;23489;49.600;6.138;2024-01-15T12:54:24;14.13;;;6.88;;
37645;SDS011;23489;49.600;6.138;2024-01-15T12:56:50;14.32;;;6.90;;
37645;SDS011;23489;49.600;6.138;2024-01-15T12:59:16;11.30;;;6.95;;
37645;SDS011;23489;49.600;6.138;2024-01-15T13:01:44;12.35;;;6.03;;
37645;SDS011;23489;49.600;6.138;2024-01-15T13:04:10;12.13;;;6.88;;
37645;SDS011;23489;49.600;6.138;2024-01-15T13:06:36;14.35;;;6.55;;
37645;SDS011;23489;49.600;6.138;2024-01-15T13:09:02;9.40;;;5.65;;
37645;SDS011;23489;49.600;6.138;2024-01-15T13:11:30;10.93;;;5.70;;
37645;SDS011;23489;49.600;6.138;2024-01-15T13:13:57;8.20;;;5.43;;
37645;SDS011;23489;49.600;6.138;2024-01-15T13:16:22;7.65;;;4.03;;
37645;SDS011;23489;49.600;6.138;2024-01-15T13:18:48;9.23;;;5.07;;
37645;SDS011;23489;49.600;6.138;2024-01-15T13:21:15;8.10;;;4.90;;
37645;SDS011;23489;49.600;6.138;2024-01-15T13:23:40;7.60;;;4.70;;
37645;SDS011;23489;49.600;6.138;2024-01-15T13:26:06;12.27;;;4.97;;
37645;SDS011;23489;49.600;6.138;2024-01-15T13:28:32;9.25;;;4.68;;
37645;SDS011;23489;49.600;6.138;2024-01-15T13:30:59;7.20;;;4.43;;
37645;SDS011;23489;49.600;6.138;2024-01-15T13:33:25;8.35;;;4.22;;
37645;SDS011;23489;49.600;6.138;2024-01-15T13:35:50;8.07;;;4.72;;
37645;SDS011;23489;49.600;6.138;2024-01-15T13:38:16;9.85;;;4.15;;
37645;SDS011;23489;49.600;6.138;2024-01-15T13:40:42;7.88;;;4.78;;
37645;SDS011;23489;49.600;6.138;2024-01-15T13:43:10;9.45;;;4.38;;
37645;SDS011;23489;49.600;6.138;2024-01-15T13:48:02;11.13;;;4.93;;
37645;SDS011;23489;49.600;6.138;2024-01-15T13:52:56;9.97;;;4.00;;
37645;SDS011;23489;49.600;6.138;2024-01-15T13:55:22;8.43;;;3.40;;
37645;SDS011;23489;49.600;6.138;2024-01-15T13:57:48;7.85;;;3.03;;
37645;SDS011;23489;49.600;6.138;2024-01-15T14:00:13;7.38;;;3.50;;
37645;SDS011;23489;49.600;6.138;2024-01-15T14:02:43;7.40;;;3.13;;
37645;SDS011;23489;49.600;6.138;2024-01-15T14:05:09;11.23;;;3.15;;
37645;SDS011;23489;49.600;6.138;2024-01-15T14:07:37;7.18;;;3.45;;
37645;SDS011;23489;49.600;6.138;2024-01-15T14:10:04;5.27;;;3.93;;
37645;SDS011;23489;49.600;6.138;2024-01-15T14:12:30;6.72;;;3.47;;
37645;SDS011;23489;49.600;6.138;2024-01-15T14:14:56;4.18;;;3.05;;
37645;SDS011;23489;49.600;6.138;2024-01-15T14:17:22;7.53;;;3.73;;
37645;SDS011;23489;49.600;6.138;2024-01-15T14:19:48;6.38;;;3.22;;
37645;SDS011;23489;49.600;6.138;2024-01-15T14:22:13;6.43;;;3.15;;
37645;SDS011;23489;49.600;6.138;2024-01-15T14:24:39;5.53;;;3.03;;
37645;SDS011;23489;49.600;6.138;2024-01-15T14:27:04;5.13;;;3.22;;
37645;SDS011;23489;49.600;6.138;2024-01-15T14:29:32;6.43;;;2.42;;
37645;SDS011;23489;49.600;6.138;2024-01-15T14:31:58;6.32;;;2.55;;
37645;SDS011;23489;49.600;6.138;2024-01-15T14:34:24;3.58;;;2.85;;
37645;SDS011;23489;49.600;6.138;2024-01-15T14:36:51;6.00;;;3.10;;
37645;SDS011;23489;49.600;6.138;2024-01-15T14:39:20;4.68;;;2.67;;
37645;SDS011;23489;49.600;6.138;2024-01-15T14:41:46;5.22;;;2.88;;
37645;SDS011;23489;49.600;6.138;2024-01-15T14:44:12;7.22;;;3.20;;
37645;SDS011;23489;49.600;6.138;2024-01-15T14:46:39;4.93;;;3.22;;
37645;SDS011;23489;49.600;6.138;2024-01-15T14:49:05;3.83;;;3.35;;
37645;SDS011;23489;49.600;6.138;2024-01-15T14:51:31;5.03;;;3.08;;
37645;SDS011;23489;49.600;6.138;2024-01-15T14:53:57;3.17;;;2.55;;
37645;SDS011;23489;49.600;6.138;2024-01-15T14:56:22;4.43;;;2.45;;
37645;SDS011;23489;49.600;6.138;2024-01-15T14:58:48;4.88;;;2.92;;
37645;SDS011;23489;49.600;6.138;2024-01-15T15:01:14;4.18;;;2.65;;
37645;SDS011;23489;49.600;6.138;2024-01-15T15:03:40;4.10;;;2.80;;
37645;SDS011;23489;49.600;6.138;2024-01-15T15:06:06;5.05;;;3.00;;
37645;SDS011;23489;49.600;6.138;2024-01-15T15:08:34;3.05;;;2.50;;
37645;SDS011;23489;49.600;6.138;2024-01-15T15:11:00;6.00;;;3.00;;
37645;SDS011;23489;49.600;6.138;2024-01-15T15:13:26;7.32;;;3.00;;